Broadway, OH (43007)

2:38 PM EDT on July 28, 2015 (GMT -0400)
Moore Rd | | Change Station
CLOSE
Current Station
Personal Weather Station
Location: Marysville, OH
Elevation: 1025 ft
Nearby Weather Stations

Elev 1025 ft 40.30 °N, 83.37 °W | Updated 2 seconds ago

Partly Cloudy
Partly Cloudy
84.2 °F
Feels Like 84 °F
N
2.7
Wind Variable Wind from WNW
Gusts 2.7 mph

Today
High -- | Low -- °F
--% Chance of Precip.
Yesterday
High -- | Low -- °F
Precip. -- in
6:27 AM 8:52 PM
Waxing Gibbous, 91% visible
Pressure 30.01 in
Visibility 10.0 miles
Clouds Scattered Clouds 5000 ft
Mostly Cloudy 6500 ft
Mostly Cloudy 9500 ft
Heat Index 84 °F
Dew Point 58 °F
Humidity 41%
Rainfall 0.00 in
Snow Depth Not available.
UV 6 out of 12
Pollen 6.60 out of 12
Air Quality Not available.
Flu Activity Not available.
METAR KMRT 281834Z AUTO 00000KT 10SM SCT050 BKN065 BKN095 30/19 A3001 RMK AO2 T03030192

More Conditions Fewer Conditions

Pressure 30.01 in
Visibility 10.0 miles
Clouds Scattered Clouds 5000 ft
Mostly Cloudy 6500 ft
Mostly Cloudy 9500 ft
Heat Index 84 °F
Dew Point 58 °F
Humidity 41%
Rainfall 0.00 in
Snow Depth Not available.
UV 6 out of 12
Pollen 6.60 out of 12
Air Quality Not available.
Flu Activity Not available.
METAR KMRT 281834Z AUTO 00000KT 10SM SCT050 BKN065 BKN095 30/19 A3001 RMK AO2 T03030192

More Conditions Fewer Conditions

10-Day Weather Forecast

×

Almanac

Astronomy

Jul. 28, 2015 Rise Set
Actual Time
Civil Twilight
Nautical Twilight
Astronomical Twilight
Moon
Length of Visible Light
Length of Day
Tomorrow will be .
, % of the Moon is Illuminated

Today's Extremes

State Highs State Lows

Community

WunderPhotos

Upload Photos

1,841,908 photos uploaded!

WunderBlogs® & News

Nearby

Air Quality

  Air Quality AQ Index Pollutant
Not available.

Snow Depth

Station Depth Elevation

Earthquake Activity

City Distance Mag. Time & Date
Minimum magnitude displayed is 2.5.

Coastal Water Temperatures

Place Temperature

Stations

Nearby Weather Stations

Station Location Temp. Windchill Dew Point Humidity Wind Precip. Elev Updated Type